createdAt,value
2022-08-07T08:12:59.302Z,20.30
2022-08-07T08:15:23.393Z,20.30
2022-08-07T08:17:57.709Z,20.40
2022-08-07T08:20:38.887Z,20.40
2022-08-07T08:23:29.793Z,20.60
2022-08-07T08:26:27.341Z,20.50
2022-08-07T08:28:56.674Z,20.60
2022-08-07T08:32:16.751Z,20.70
2022-08-07T08:34:27.157Z,20.60
2022-08-07T08:36:57.928Z,20.70
2022-08-07T08:39:39.635Z,20.80
2022-08-07T08:42:40.449Z,20.80
2022-08-07T08:45:41.423Z,21.00
2022-08-07T08:48:36.066Z,21.10
2022-08-07T08:51:49.740Z,21.00
2022-08-07T08:54:26.159Z,20.80
2022-08-07T08:56:54.988Z,20.80
2022-08-07T08:59:42.043Z,21.10
2022-08-07T09:02:44.136Z,21.20
2022-08-07T09:06:00.057Z,21.20
2022-08-07T09:09:09.569Z,21.30
2022-08-07T09:12:20.150Z,21.30
2022-08-07T09:16:23.467Z,21.60
2022-08-07T09:18:25.460Z,21.40
2022-08-07T09:21:57.692Z,21.40
2022-08-07T09:24:58.685Z,22.00
2022-08-07T09:30:01.070Z,22.00
2022-08-07T09:31:16.783Z,22.30
2022-08-07T09:34:07.875Z,22.80
2022-08-07T09:36:42.777Z,22.60
2022-08-07T09:39:54.303Z,23.00
2022-08-07T09:42:45.724Z,23.40
2022-08-07T09:47:25.420Z,23.00
2022-08-07T09:48:30.209Z,22.40
2022-08-07T09:52:16.875Z,22.60
2022-08-07T09:54:17.880Z,22.90
2022-08-07T09:57:12.745Z,23.20
2022-08-07T10:00:20.470Z,23.30
2022-08-07T10:04:05.494Z,23.30
2022-08-07T10:06:40.938Z,23.40
2022-08-07T10:10:01.082Z,23.40
2022-08-07T10:12:52.999Z,23.60
2022-08-07T10:15:28.921Z,23.60
2022-08-07T10:18:26.621Z,24.10
2022-08-07T10:21:19.887Z,24.20
2022-08-07T10:24:21.765Z,24.20
2022-08-07T10:27:18.029Z,24.10
2022-08-07T10:30:06.911Z,24.30
2022-08-07T10:33:03.193Z,24.50
2022-08-07T10:35:55.527Z,24.30
2022-08-07T10:38:41.204Z,24.50
2022-08-07T10:41:47.273Z,24.30
2022-08-07T10:44:37.724Z,24.20
2022-08-07T10:47:26.814Z,24.30
2022-08-07T10:50:18.876Z,23.70
2022-08-07T10:53:27.543Z,23.30
2022-08-07T10:56:05.037Z,22.80
2022-08-07T10:58:59.836Z,22.80
2022-08-07T11:01:52.016Z,22.60
2022-08-07T11:04:59.869Z,22.50
2022-08-07T11:07:58.651Z,22.70
2022-08-07T11:10:57.841Z,23.00
2022-08-07T11:14:44.974Z,23.60
2022-08-07T11:16:31.494Z,23.80
2022-08-07T11:19:21.567Z,23.40
2022-08-07T11:22:05.465Z,23.10
2022-08-07T11:24:53.156Z,23.20
2022-08-07T11:28:01.646Z,23.10
2022-08-07T11:30:19.416Z,23.10
2022-08-07T11:33:58.684Z,23.20
2022-08-07T11:36:39.916Z,23.50
2022-08-07T11:39:56.832Z,23.80
2022-08-07T11:42:33.805Z,23.60
2022-08-07T11:45:13.024Z,23.90
2022-08-07T11:48:02.596Z,24.20
2022-08-07T11:50:58.212Z,24.50
2022-08-07T11:54:00.642Z,24.30
2022-08-07T11:56:56.179Z,24.00
2022-08-07T12:00:11.912Z,24.00
2022-08-07T12:02:36.032Z,23.80
2022-08-07T12:05:41.766Z,23.80
2022-08-07T12:08:07.275Z,24.10
2022-08-07T12:11:21.166Z,23.90
2022-08-07T12:13:58.177Z,24.00
2022-08-07T12:16:30.550Z,24.40
2022-08-07T12:19:06.259Z,24.30
2022-08-07T12:22:35.838Z,24.30
2022-08-07T12:25:17.988Z,24.70
2022-08-07T12:28:10.093Z,24.20
2022-08-07T12:30:40.630Z,24.60
2022-08-07T12:33:28.470Z,24.60
2022-08-07T12:35:58.999Z,25.10
2022-08-07T12:38:42.513Z,25.30
2022-08-07T12:41:11.376Z,25.40
2022-08-07T12:44:02.039Z,26.00
2022-08-07T12:46:52.044Z,26.50
2022-08-07T12:49:48.485Z,26.40
2022-08-07T12:52:36.797Z,26.20
2022-08-07T12:55:16.518Z,26.80
2022-08-07T12:57:59.261Z,26.70
2022-08-07T13:00:56.796Z,26.40
2022-08-07T13:04:02.203Z,25.90
2022-08-07T13:07:02.994Z,25.20
2022-08-07T13:10:38.277Z,25.20
2022-08-07T13:13:48.408Z,25.20
2022-08-07T13:16:39.824Z,24.50
2022-08-07T13:19:45.828Z,25.10
2022-08-07T13:22:31.174Z,24.90
2022-08-07T13:25:23.966Z,24.80
2022-08-07T13:28:12.531Z,25.30
2022-08-07T13:30:48.969Z,25.30
2022-08-07T13:34:31.527Z,25.90
2022-08-07T13:36:39.671Z,26.00
2022-08-07T13:40:33.338Z,25.90
2022-08-07T13:42:25.386Z,26.10
2022-08-07T13:44:55.346Z,26.30
2022-08-07T13:48:06.436Z,26.20
2022-08-07T13:50:35.745Z,26.40
2022-08-07T13:53:22.012Z,27.00
2022-08-07T13:55:54.573Z,26.90
2022-08-07T13:58:56.489Z,26.50
2022-08-07T14:01:26.389Z,26.50
2022-08-07T14:04:07.174Z,26.50
2022-08-07T14:06:40.510Z,26.60
2022-08-07T14:09:17.268Z,26.80
2022-08-07T14:12:10.300Z,26.30
2022-08-07T14:14:43.287Z,26.10
2022-08-07T14:17:51.571Z,26.10
2022-08-07T14:20:43.674Z,26.50
2022-08-07T14:23:31.573Z,26.60
2022-08-07T14:26:28.344Z,26.50
2022-08-07T14:29:08.868Z,26.70
2022-08-07T14:31:56.453Z,27.10
2022-08-07T14:34:29.915Z,27.10
2022-08-07T14:36:59.427Z,26.90
2022-08-07T14:40:17.552Z,27.10
2022-08-07T14:42:23.771Z,27.40
2022-08-07T14:44:59.885Z,27.30
2022-08-07T14:47:44.828Z,27.10
2022-08-07T14:50:19.128Z,26.10
2022-08-07T14:52:47.761Z,26.00
2022-08-07T14:55:18.119Z,25.90
2022-08-07T14:57:57.963Z,25.90
2022-08-07T15:00:31.238Z,25.70
2022-08-07T15:03:00.089Z,25.30
2022-08-07T15:05:30.318Z,25.30
2022-08-07T15:08:03.626Z,25.20
2022-08-07T15:10:30.719Z,25.10
2022-08-07T15:13:11.419Z,25.10
2022-08-07T15:15:53.350Z,25.10
2022-08-07T15:18:34.096Z,25.10
2022-08-07T15:21:43.983Z,24.90
2022-08-07T15:26:56.645Z,24.80
2022-08-07T15:32:38.856Z,24.50
2022-08-07T15:35:06.586Z,24.40
2022-08-07T15:38:18.174Z,24.40
2022-08-07T15:43:33.175Z,24.60
